createdAt,value
2023-04-25T00:00:31.561Z,94828.19
2023-04-25T00:03:00.609Z,94823.34
2023-04-25T00:05:30.533Z,94823.34
2023-04-25T00:08:00.009Z,94814.25
2023-04-25T00:10:27.793Z,94818.03
2023-04-25T00:12:55.402Z,94812.13
2023-04-25T00:15:23.188Z,94818.84
2023-04-25T00:17:50.916Z,94828.81
2023-04-25T00:20:18.717Z,94830.91
2023-04-25T00:22:46.456Z,94828.97
2023-04-25T00:25:15.497Z,94823.03
2023-04-25T00:27:43.725Z,94824.31
2023-04-25T00:30:12.585Z,94824.28
2023-04-25T00:32:40.257Z,94821.84
2023-04-25T00:35:08.284Z,94820.72
2023-04-25T00:37:36.009Z,94818.78
2023-04-25T00:40:04.963Z,94820.91
2023-04-25T00:42:34.067Z,94814.19
2023-04-25T00:45:02.874Z,94813.97
2023-04-25T00:47:31.058Z,94813.19
2023-04-25T00:49:58.781Z,94808.59
2023-04-25T00:52:26.591Z,94811.03
2023-04-25T00:54:54.300Z,94813.19
2023-04-25T00:57:22.100Z,94799.50
2023-04-25T00:59:53.814Z,94802.25
2023-04-25T01:02:22.831Z,94800.44
2023-04-25T01:04:50.962Z,94806.44
2023-04-25T01:07:18.764Z,94810.19
2023-04-25T01:09:46.423Z,94809.41
2023-04-25T01:12:15.580Z,94807.22
2023-04-25T01:14:43.307Z,94804.53
2023-04-25T01:17:12.665Z,94807.41
2023-04-25T01:19:40.409Z,94805.28
2023-04-25T01:22:11.239Z,94796.16
2023-04-25T01:24:39.568Z,94805.34
2023-04-25T01:27:07.448Z,94795.34
2023-04-25T01:29:36.686Z,94797.56
2023-04-25T01:32:05.109Z,94796.50
2023-04-25T01:34:32.852Z,94790.03
2023-04-25T01:37:02.970Z,94800.53
2023-04-25T01:39:32.278Z,94802.22
2023-04-25T01:42:02.499Z,94793.34
2023-04-25T01:44:30.326Z,94799.88
2023-04-25T01:46:58.109Z,94792.91
2023-04-25T01:49:25.872Z,94798.88
2023-04-25T01:51:53.560Z,94797.53
2023-04-25T01:54:21.303Z,94800.59
2023-04-25T01:56:53.729Z,94798.97
2023-04-25T01:59:22.761Z,94801.47
2023-04-25T02:01:50.532Z,94804.22
2023-04-25T02:04:18.378Z,94802.63
2023-04-25T02:06:46.216Z,94799.97
2023-04-25T02:09:13.884Z,94798.66
2023-04-25T02:11:41.759Z,94804.31
2023-04-25T02:14:10.789Z,94794.09
2023-04-25T02:16:40.742Z,94800.53
2023-04-25T02:19:08.610Z,94808.88
2023-04-25T02:21:36.721Z,94812.63
2023-04-25T02:24:04.867Z,94808.06
2023-04-25T02:26:32.539Z,94811.56
2023-04-25T02:29:00.824Z,94807.25
2023-04-25T02:31:29.954Z,94802.97
2023-04-25T02:33:57.713Z,94810.75
2023-04-25T02:36:25.430Z,94804.03
2023-04-25T02:38:53.084Z,94804.84
2023-04-25T02:41:21.797Z,94799.19
2023-04-25T02:43:49.614Z,94797.59
2023-04-25T02:46:22.923Z,94798.38
2023-04-25T02:48:57.960Z,94798.91
2023-04-25T02:51:25.909Z,94799.19
2023-04-25T02:53:53.644Z,94805.66
2023-04-25T02:56:21.401Z,94801.63
2023-04-25T02:58:49.383Z,94807.00
2023-04-25T03:01:17.057Z,94801.34
2023-04-25T03:03:44.846Z,94798.38
2023-04-25T03:06:14.000Z,94802.16
2023-04-25T03:08:41.620Z,94812.63
2023-04-25T03:11:09.310Z,94813.16
2023-04-25T03:13:36.999Z,94809.88
2023-04-25T03:16:05.017Z,94812.22
2023-04-25T03:18:32.745Z,94794.81
2023-04-25T03:21:00.623Z,94776.44
2023-04-25T03:23:29.766Z,94774.19
2023-04-25T03:25:57.418Z,94778.78
2023-04-25T03:28:25.652Z,94774.81
2023-04-25T03:30:53.355Z,94776.97
2023-04-25T03:33:21.017Z,94780.50
2023-04-25T03:35:48.672Z,94784.59
2023-04-25T03:38:16.306Z,94776.53
2023-04-25T03:40:45.379Z,94776.53
2023-04-25T03:43:13.203Z,94779.28
2023-04-25T03:45:40.980Z,94776.06
2023-04-25T03:48:08.730Z,94770.69
2023-04-25T03:50:37.147Z,94776.09
2023-04-25T03:53:04.850Z,94779.84
2023-04-25T03:55:32.754Z,94779.31
2023-04-25T03:58:01.773Z,94781.72
2023-04-25T04:00:29.461Z,94775.81
2023-04-25T04:02:57.258Z,94779.56
2023-04-25T04:05:25.413Z,94775.53
2023-04-25T04:07:53.272Z,94780.63
2023-04-25T04:10:21.258Z,94777.13
2023-04-25T04:12:49.045Z,94778.50
2023-04-25T04:15:18.083Z,94778.81
2023-04-25T04:17:46.416Z,94778.28
2023-04-25T04:20:14.247Z,94775.56
2023-04-25T04:22:41.970Z,94768.31
2023-04-25T04:25:11.073Z,94764.56
2023-04-25T04:27:38.780Z,94769.94
2023-04-25T04:30:08.439Z,94772.34
2023-04-25T04:32:38.721Z,94782.06
2023-04-25T04:35:07.519Z,94778.22
2023-04-25T04:37:35.268Z,94775.59
2023-04-25T04:40:06.836Z,94779.31
2023-04-25T04:42:34.628Z,94795.22
2023-04-25T04:45:02.499Z,94791.97
2023-04-25T04:47:33.378Z,94802.47
2023-04-25T04:50:03.740Z,94794.38
2023-04-25T04:52:31.587Z,94790.59
2023-04-25T04:54:59.233Z,94780.09
2023-04-25T04:57:27.607Z,94773.38
2023-04-25T04:59:55.387Z,94767.66
2023-04-25T05:02:23.185Z,94777.88
2023-04-25T05:04:52.652Z,94771.91
2023-04-25T05:07:22.023Z,94774.06
2023-04-25T05:09:49.717Z,94776.75
2023-04-25T05:12:17.434Z,94777.28
2023-04-25T05:14:45.140Z,94776.22
2023-04-25T05:17:12.844Z,94778.38
2023-04-25T05:19:41.417Z,94772.72
2023-04-25T05:22:09.359Z,94768.72
2023-04-25T05:24:38.409Z,94773.00
2023-04-25T05:27:06.613Z,94767.84
2023-04-25T05:29:34.398Z,94780.25
2023-04-25T05:32:02.105Z,94770.00
2023-04-25T05:34:29.788Z,94771.31
2023-04-25T05:36:57.501Z,94766.69
2023-04-25T05:39:25.166Z,94758.81
2023-04-25T05:41:54.231Z,94760.94
2023-04-25T05:44:21.960Z,94762.47
2023-04-25T05:46:49.740Z,94758.56
2023-04-25T05:49:19.472Z,94762.22
2023-04-25T05:51:47.508Z,94749.66
2023-04-25T05:54:15.179Z,94764.25
2023-04-25T05:56:42.918Z,94767.38
2023-04-25T05:59:11.985Z,94775.81
2023-04-25T06:01:39.650Z,94775.16
2023-04-25T06:04:07.488Z,94773.66
2023-04-25T06:06:35.266Z,94783.63
2023-04-25T06:09:02.934Z,94794.59
2023-04-25T06:11:30.840Z,94797.94
2023-04-25T06:13:58.594Z,94809.13
2023-04-25T06:16:28.059Z,94808.66
2023-04-25T06:18:55.725Z,94802.47
2023-04-25T06:21:23.423Z,94805.78
2023-04-25T06:23:51.386Z,94796.94
2023-04-25T06:26:20.328Z,94790.53
2023-04-25T06:28:48.036Z,94789.44
2023-04-25T06:31:16.236Z,94794.03
2023-04-25T06:33:45.510Z,94790.47
2023-04-25T06:36:13.189Z,94785.31
2023-04-25T06:38:40.869Z,94784.44
2023-04-25T06:41:08.503Z,94786.75
2023-04-25T06:43:36.186Z,94786.47
2023-04-25T06:46:03.900Z,94781.88
2023-04-25T06:48:31.599Z,94785.41
2023-04-25T06:51:00.634Z,94778.63
2023-04-25T06:53:28.332Z,94781.75
2023-04-25T06:55:56.064Z,94787.34
2023-04-25T06:58:23.732Z,94783.97
2023-04-25T07:00:51.477Z,94786.19
2023-04-25T07:03:19.282Z,94781.63
2023-04-25T07:05:47.784Z,94789.47
2023-04-25T07:08:16.752Z,94781.34
2023-04-25T07:10:44.677Z,94778.09
2023-04-25T07:13:12.323Z,94780.28
2023-04-25T07:15:40.113Z,94774.56
2023-04-25T07:18:07.833Z,94773.16
2023-04-25T07:20:35.651Z,94767.06
2023-04-25T07:23:03.428Z,94771.00
2023-04-25T07:25:32.596Z,94767.34
2023-04-25T07:28:00.274Z,94774.00
2023-04-25T07:30:28.446Z,94762.91
2023-04-25T07:32:56.423Z,94760.91
2023-04-25T07:35:24.382Z,94759.97
2023-04-25T07:37:52.115Z,94753.94
2023-04-25T07:40:19.800Z,94759.63
2023-04-25T07:42:48.895Z,94753.78
2023-04-25T07:45:17.135Z,94757.38
2023-04-25T07:47:44.834Z,94758.06
2023-04-25T07:50:13.024Z,94760.97
2023-04-25T07:52:40.713Z,94759.13
2023-04-25T07:55:08.955Z,94749.72
2023-04-25T07:57:36.661Z,94753.84
2023-04-25T08:00:10.462Z,94748.50
2023-04-25T08:02:38.263Z,94737.31
2023-04-25T08:05:09.132Z,94733.94
2023-04-25T08:07:37.064Z,94728.81
2023-04-25T08:10:05.652Z,94736.28
2023-04-25T08:12:33.379Z,94721.44
2023-04-25T08:15:01.038Z,94719.31
2023-04-25T08:17:30.155Z,94708.47
2023-04-25T08:19:58.002Z,94716.88
2023-04-25T08:22:25.733Z,94717.00
2023-04-25T08:24:53.419Z,94711.47
2023-04-25T08:27:21.893Z,94719.41
2023-04-25T08:29:50.067Z,94705.19
2023-04-25T08:32:17.791Z,94711.78
2023-04-25T08:34:48.110Z,94719.44
2023-04-25T08:37:15.846Z,94718.78
2023-04-25T08:39:43.611Z,94717.47
2023-04-25T08:42:14.090Z,94730.00
2023-04-25T08:44:41.766Z,94732.38
2023-04-25T08:47:09.526Z,94730.25
2023-04-25T08:49:38.020Z,94729.09
2023-04-25T08:52:07.704Z,94724.03
2023-04-25T08:54:37.949Z,94726.22
2023-04-25T08:57:07.765Z,94717.28
2023-04-25T08:59:37.230Z,94721.72
2023-04-25T09:02:06.317Z,94715.19
2023-04-25T09:04:34.532Z,94725.88
2023-04-25T09:07:02.211Z,94725.72
2023-04-25T09:09:31.568Z,94728.13
2023-04-25T09:12:00.446Z,94718.34
2023-04-25T09:14:28.964Z,94718.31
2023-04-25T09:17:02.055Z,94718.78
2023-04-25T09:22:03.987Z,94724.03
2023-04-25T09:24:37.979Z,94723.03
2023-04-25T09:27:06.946Z,94736.22
2023-04-25T09:29:35.990Z,94722.19
2023-04-25T09:32:14.963Z,94729.81
2023-04-25T09:34:43.772Z,94728.69
2023-04-25T09:37:12.108Z,94726.75
2023-04-25T09:39:41.857Z,94729.97
2023-04-25T09:42:11.552Z,94733.47
2023-04-25T09:44:39.857Z,94734.91
2023-04-25T09:47:11.965Z,94736.03
2023-04-25T09:49:42.226Z,94743.25
2023-04-25T09:52:10.221Z,94733.13
2023-04-25T09:54:37.947Z,94732.16
2023-04-25T09:57:15.206Z,94731.53
2023-04-25T09:59:46.888Z,94736.41
2023-04-25T10:02:16.821Z,94742.22
2023-04-25T10:04:49.388Z,94733.06
2023-04-25T10:07:17.337Z,94742.25
2023-04-25T10:09:46.648Z,94732.00
2023-04-25T10:12:16.194Z,94731.88
2023-04-25T10:14:44.627Z,94738.44
2023-04-25T10:17:13.038Z,94738.69
2023-04-25T10:19:41.866Z,94728.91
2023-04-25T10:22:16.576Z,94728.81
2023-04-25T10:24:45.444Z,94720.94
2023-04-25T10:27:13.227Z,94712.38
2023-04-25T10:29:44.301Z,94707.72
2023-04-25T10:32:12.227Z,94711.25
2023-04-25T10:34:41.946Z,94709.75
2023-04-25T10:37:13.262Z,94726.66
2023-04-25T10:39:42.650Z,94732.84
2023-04-25T10:42:10.711Z,94738.94
2023-04-25T10:44:40.310Z,94758.47
2023-04-25T10:47:11.552Z,94755.66
2023-04-25T10:49:40.372Z,94756.81
2023-04-25T10:52:26.896Z,94770.44
2023-04-25T10:54:56.053Z,94779.00
2023-04-25T10:57:38.076Z,94786.63
2023-04-25T11:00:12.658Z,94798.44
2023-04-25T11:02:46.354Z,94799.09
2023-04-25T11:05:23.340Z,94803.88
2023-04-25T11:08:03.896Z,94788.41
2023-04-25T11:10:33.866Z,94810.41
2023-04-25T11:13:01.588Z,94806.53
2023-04-25T11:15:29.769Z,94812.34
2023-04-25T11:17:58.924Z,94808.72
2023-04-25T11:20:29.626Z,94808.81
2023-04-25T11:22:59.630Z,94832.31
2023-04-25T11:25:28.083Z,94838.69
2023-04-25T11:27:58.170Z,94851.09
2023-04-25T11:30:27.660Z,94859.50
2023-04-25T11:32:55.889Z,94856.16
2023-04-25T11:35:26.618Z,94867.09
2023-04-25T11:37:54.468Z,94859.78
2023-04-25T11:40:22.247Z,94865.94
2023-04-25T11:42:50.029Z,94879.31
2023-04-25T11:45:19.639Z,94879.81
2023-04-25T11:47:47.589Z,94895.41
2023-04-25T11:50:15.674Z,94899.28
2023-04-25T11:52:46.577Z,94895.25
2023-04-25T11:55:16.193Z,94888.28
2023-04-25T11:57:45.488Z,94890.13
2023-04-25T12:00:18.080Z,94896.75
2023-04-25T12:02:48.077Z,94892.53
2023-04-25T12:05:30.978Z,94895.81
2023-04-25T12:08:11.715Z,94898.13
2023-04-25T12:10:40.604Z,94892.72
2023-04-25T12:13:22.054Z,94896.13
2023-04-25T12:15:49.928Z,94895.06
2023-04-25T12:18:21.759Z,94899.56
2023-04-25T12:20:49.472Z,94901.03
2023-04-25T12:23:18.504Z,94901.84
2023-04-25T12:25:48.082Z,94904.47
2023-04-25T12:28:17.697Z,94910.38
2023-04-25T12:30:59.434Z,94908.91
2023-04-25T12:33:28.561Z,94909.28
2023-04-25T12:35:57.053Z,94913.53
2023-04-25T12:38:27.484Z,94905.00
2023-04-25T12:40:55.545Z,94900.34
2023-04-25T12:43:23.729Z,94908.66
2023-04-25T12:45:52.136Z,94908.03
2023-04-25T12:48:20.375Z,94910.78
2023-04-25T12:50:49.989Z,94905.47
2023-04-25T12:53:17.892Z,94901.94
2023-04-25T12:55:47.935Z,94908.78
2023-04-25T12:58:15.730Z,94913.72
2023-04-25T13:00:44.105Z,94919.63
2023-04-25T13:03:13.434Z,94914.00
2023-04-25T13:05:42.149Z,94920.41
2023-04-25T13:08:09.970Z,94918.91
2023-04-25T13:10:39.412Z,94922.53
2023-04-25T13:13:08.434Z,94926.91
2023-04-25T13:15:36.344Z,94924.22
2023-04-25T13:18:06.495Z,94935.63
2023-04-25T13:20:34.305Z,94933.50
2023-04-25T13:23:02.937Z,94937.22
2023-04-25T13:25:30.863Z,94927.03
2023-04-25T13:27:58.485Z,94927.66
2023-04-25T13:30:27.583Z,94939.00
2023-04-25T13:32:57.284Z,94942.41
2023-04-25T13:35:25.548Z,94946.16
2023-04-25T13:37:53.303Z,94949.50
2023-04-25T13:40:22.830Z,94943.38
2023-04-25T13:42:52.013Z,94946.47
2023-04-25T13:45:19.988Z,94950.16
2023-04-25T13:47:49.191Z,94959.50
2023-04-25T13:50:17.139Z,94954.88
2023-04-25T13:52:45.976Z,94969.16
2023-04-25T13:55:13.806Z,94972.25
2023-04-25T13:57:41.565Z,94985.03
2023-04-25T14:00:10.883Z,94985.31
2023-04-25T14:02:38.721Z,94995.31
2023-04-25T14:05:08.934Z,94997.81
2023-04-25T14:07:36.946Z,95002.66
2023-04-25T14:10:06.691Z,95002.75
2023-04-25T14:12:34.995Z,94997.97
2023-04-25T14:15:02.742Z,95013.88
2023-04-25T14:17:30.922Z,95011.16
2023-04-25T14:19:58.606Z,95008.75
2023-04-25T14:22:27.899Z,95013.56
2023-04-25T14:24:55.665Z,95017.84
2023-04-25T14:27:23.338Z,95020.50
2023-04-25T14:29:51.327Z,95018.34
2023-04-25T14:32:19.229Z,95014.53
2023-04-25T14:34:46.901Z,95016.28
2023-04-25T14:37:14.605Z,95011.94
2023-04-25T14:39:44.814Z,95008.47
2023-04-25T14:42:14.153Z,95008.09
2023-04-25T14:44:41.828Z,95006.31
2023-04-25T14:47:09.589Z,95011.44
2023-04-25T14:49:37.435Z,95008.69
2023-04-25T14:52:05.378Z,95004.50
2023-04-25T14:54:33.292Z,95011.63
2023-04-25T14:57:03.220Z,95012.34
2023-04-25T14:59:31.036Z,95011.03
2023-04-25T15:01:59.872Z,95003.00
2023-04-25T15:04:27.958Z,95014.53
2023-04-25T15:06:56.159Z,95019.41
2023-04-25T15:09:24.958Z,95021.81
2023-04-25T15:11:52.952Z,95012.38
2023-04-25T15:14:21.958Z,95020.25
2023-04-25T15:16:49.733Z,95018.66
2023-04-25T15:19:17.427Z,95018.88
2023-04-25T15:21:45.236Z,95017.41
2023-04-25T15:24:13.112Z,95028.84
2023-04-25T15:26:40.957Z,95025.38
2023-04-25T15:29:08.765Z,95030.69
2023-04-25T15:31:37.806Z,95031.88
2023-04-25T15:34:06.206Z,95038.28
2023-04-25T15:36:33.914Z,95035.75
2023-04-25T15:39:01.740Z,95038.59
2023-04-25T15:41:30.320Z,95039.50
2023-04-25T15:43:57.988Z,95040.31
2023-04-25T15:46:25.742Z,95040.56
2023-04-25T15:48:54.918Z,95046.75
2023-04-25T15:51:22.702Z,95039.00
2023-04-25T15:53:51.076Z,95039.28
2023-04-25T15:56:18.866Z,95046.25
2023-04-25T15:58:46.568Z,95049.13
2023-04-25T16:01:15.004Z,95054.41
2023-04-25T16:03:42.880Z,95057.25
2023-04-25T16:06:12.034Z,95061.69
2023-04-25T16:08:40.002Z,95056.47
2023-04-25T16:11:08.128Z,95064.94
2023-04-25T16:13:36.204Z,95059.94
2023-04-25T16:16:03.917Z,95060.78
2023-04-25T16:18:31.640Z,95067.38
2023-04-25T16:20:59.301Z,95079.25
2023-04-25T16:23:28.346Z,95080.59
2023-04-25T16:25:56.121Z,95081.69
2023-04-25T16:28:23.824Z,95079.78
2023-04-25T16:30:51.550Z,95075.88
2023-04-25T16:33:19.302Z,95074.22
2023-04-25T16:35:47.022Z,95073.31
2023-04-25T16:38:14.727Z,95073.34
2023-04-25T16:40:43.763Z,95082.25
2023-04-25T16:43:11.425Z,95082.19
2023-04-25T16:45:39.141Z,95087.81
2023-04-25T16:48:07.141Z,95085.34
2023-04-25T16:50:34.950Z,95084.19
2023-04-25T16:53:02.647Z,95092.78
2023-04-25T16:55:30.321Z,95088.34
2023-04-25T16:57:59.542Z,95086.56
2023-04-25T17:00:27.420Z,95093.72
2023-04-25T17:02:55.299Z,95098.44
2023-04-25T17:05:23.019Z,95105.56
2023-04-25T17:07:50.695Z,95105.03
2023-04-25T17:10:18.617Z,95112.31
2023-04-25T17:12:47.487Z,95108.56
2023-04-25T17:15:16.838Z,95114.22
2023-04-25T17:17:44.578Z,95110.97
2023-04-25T17:20:13.670Z,95117.75
2023-04-25T17:22:41.632Z,95121.03
2023-04-25T17:25:10.648Z,95126.44
2023-04-25T17:27:38.587Z,95129.69
2023-04-25T17:30:08.343Z,95135.38
2023-04-25T17:32:37.409Z,95141.59
2023-04-25T17:35:05.710Z,95129.41
2023-04-25T17:37:33.697Z,95142.38
2023-04-25T17:40:01.645Z,95139.94
2023-04-25T17:42:29.536Z,95141.56
2023-04-25T17:44:57.275Z,95149.41
2023-04-25T17:47:25.028Z,95150.47
2023-04-25T17:49:54.697Z,95158.63
2023-04-25T17:52:22.353Z,95167.81
2023-04-25T17:54:50.038Z,95174.03
2023-04-25T17:57:17.685Z,95165.13
2023-04-25T17:59:45.418Z,95164.03
2023-04-25T18:02:13.209Z,95168.91
2023-04-25T18:04:41.005Z,95162.97
2023-04-25T18:07:10.078Z,95173.22
2023-04-25T18:09:37.795Z,95174.28
2023-04-25T18:12:05.990Z,95176.72
2023-04-25T18:14:35.043Z,95180.50
2023-04-25T18:17:04.121Z,95180.78
2023-04-25T18:19:31.866Z,95194.28
2023-04-25T18:21:59.529Z,95207.28
2023-04-25T18:24:28.594Z,95210.50
2023-04-25T18:27:00.254Z,95219.69
2023-04-25T18:29:33.580Z,95237.75
2023-04-25T18:32:01.964Z,95231.03
2023-04-25T18:34:29.950Z,95238.84
2023-04-25T18:36:57.923Z,95243.03
2023-04-25T18:39:26.156Z,95248.38
2023-04-25T18:42:04.361Z,95258.59
2023-04-25T18:44:39.348Z,95251.28
2023-04-25T18:47:07.674Z,95263.91
2023-04-25T18:49:35.464Z,95273.28
2023-04-25T18:52:03.518Z,95278.16
2023-04-25T18:54:31.968Z,95279.94
2023-04-25T18:57:01.116Z,95289.31
2023-04-25T18:59:29.016Z,95297.94
2023-04-25T19:01:56.901Z,95295.75
2023-04-25T19:04:24.846Z,95283.66
2023-04-25T19:06:54.191Z,95284.00
2023-04-25T19:09:22.010Z,95282.66
2023-04-25T19:11:49.668Z,95286.97
2023-04-25T19:14:18.717Z,95294.22
2023-04-25T19:16:46.591Z,95294.53
2023-04-25T19:19:14.398Z,95298.84
2023-04-25T19:21:42.618Z,95301.53
2023-04-25T19:24:11.122Z,95307.22
2023-04-25T19:26:38.881Z,95308.31
2023-04-25T19:29:08.819Z,95314.22
2023-04-25T19:31:39.125Z,95312.91
2023-04-25T19:34:07.868Z,95312.91
2023-04-25T19:36:37.742Z,95312.09
2023-04-25T19:39:07.158Z,95315.56
2023-04-25T19:41:37.025Z,95318.25
2023-04-25T19:44:06.537Z,95316.91
2023-04-25T19:46:37.814Z,95309.41
2023-04-25T19:49:07.878Z,95314.53
2023-04-25T19:51:36.274Z,95304.28
2023-04-25T19:54:04.256Z,95309.34
2023-04-25T19:56:32.553Z,95315.25
2023-04-25T19:59:00.278Z,95318.16
2023-04-25T20:01:28.411Z,95309.56
2023-04-25T20:03:56.347Z,95314.91
2023-04-25T20:06:26.359Z,95312.47
2023-04-25T20:08:54.564Z,95308.97
2023-04-25T20:11:22.525Z,95310.91
2023-04-25T20:13:50.564Z,95312.78
2023-04-25T20:16:20.384Z,95319.22
2023-04-25T20:18:48.640Z,95315.97
2023-04-25T20:21:17.593Z,95311.09
2023-04-25T20:23:46.968Z,95304.34
2023-04-25T20:26:14.639Z,95307.81
2023-04-25T20:28:42.814Z,95315.06
2023-04-25T20:31:10.895Z,95312.13
2023-04-25T20:33:38.859Z,95314.50
2023-04-25T20:36:06.713Z,95312.63
2023-04-25T20:38:34.448Z,95317.16
2023-04-25T20:41:03.699Z,95324.84
2023-04-25T20:43:31.771Z,95338.59
2023-04-25T20:46:00.475Z,95333.50
2023-04-25T20:48:28.312Z,95327.59
2023-04-25T20:50:56.295Z,95328.66
2023-04-25T20:53:24.051Z,95333.28
2023-04-25T20:55:51.699Z,95322.56
2023-04-25T20:58:21.472Z,95327.94
2023-04-25T21:00:50.635Z,95324.72
2023-04-25T21:03:18.536Z,95330.91
2023-04-25T21:05:46.737Z,95331.16
2023-04-25T21:08:14.426Z,95330.34
2023-04-25T21:10:42.163Z,95329.56
2023-04-25T21:13:09.947Z,95327.13
2023-04-25T21:15:39.137Z,95336.28
2023-04-25T21:18:07.114Z,95343.06
2023-04-25T21:20:34.939Z,95341.97
2023-04-25T21:23:02.966Z,95342.78
2023-04-25T21:25:31.925Z,95338.72
2023-04-25T21:28:00.329Z,95335.78
2023-04-25T21:30:28.261Z,95340.81
2023-04-25T21:32:57.501Z,95335.16
2023-04-25T21:35:25.379Z,95335.78
2023-04-25T21:37:53.379Z,95333.91
2023-04-25T21:40:21.131Z,95332.28
2023-04-25T21:42:51.447Z,95330.91
2023-04-25T21:45:19.838Z,95337.09
2023-04-25T21:47:48.185Z,95342.22
2023-04-25T21:50:19.451Z,95338.47
2023-04-25T21:52:48.126Z,95332.53
2023-04-25T21:55:16.467Z,95333.34
2023-04-25T21:57:44.170Z,95327.94
2023-04-25T22:00:24.301Z,95327.28
2023-04-25T22:02:52.764Z,95334.19
2023-04-25T22:05:22.544Z,95342.16
2023-04-25T22:07:51.410Z,95334.59
2023-04-25T22:10:19.639Z,95340.22
2023-04-25T22:12:50.657Z,95338.63
2023-04-25T22:15:19.323Z,95350.75
2023-04-25T22:17:47.503Z,95356.13
2023-04-25T22:20:18.523Z,95357.19
2023-04-25T22:22:47.576Z,95365.31
2023-04-25T22:25:15.883Z,95360.25
2023-04-25T22:27:43.813Z,95369.75
2023-04-25T22:30:13.789Z,95367.06
2023-04-25T22:32:42.009Z,95367.31
2023-04-25T22:35:11.635Z,95368.91
2023-04-25T22:37:39.991Z,95376.25
2023-04-25T22:40:10.098Z,95373.53
2023-04-25T22:42:39.660Z,95371.47
2023-04-25T22:45:08.440Z,95369.84
2023-04-25T22:47:36.457Z,95361.31
2023-04-25T22:50:05.753Z,95371.84
2023-04-25T22:58:46.257Z,95377.75
2023-04-25T23:01:13.990Z,95371.81
2023-04-25T23:03:41.800Z,95377.75
2023-04-25T23:06:09.681Z,95373.72
2023-04-25T23:08:37.637Z,95373.97
2023-04-25T23:11:07.836Z,95382.03
2023-04-25T23:13:36.578Z,95378.00
2023-04-25T23:16:09.400Z,95383.16
2023-04-25T23:18:37.323Z,95374.03
2023-04-25T23:21:07.540Z,95367.81
2023-04-25T23:23:35.375Z,95385.91
2023-04-25T23:26:08.365Z,95381.59
2023-04-25T23:28:38.727Z,95376.72
2023-04-25T23:31:10.479Z,95376.41
2023-04-25T23:33:38.407Z,95379.41
2023-04-25T23:36:07.386Z,95361.63
2023-04-25T23:38:35.015Z,95371.59
2023-04-25T23:41:02.654Z,95368.59
2023-04-25T23:43:30.320Z,95368.69
2023-04-25T23:45:58.014Z,95384.28
2023-04-25T23:48:27.200Z,95383.47
2023-04-25T23:50:54.884Z,95387.22
2023-04-25T23:53:22.586Z,95390.97
2023-04-25T23:55:50.250Z,95394.44
2023-04-25T23:58:17.900Z,95394.16
